This is the latest recevied weather packets stored in our database for station/object W4DHW-4. If no packets are shown the sender has not sent any weather packets the latest 1 day(s).
| Time | Temp. | Humidity | Pressure | Rain* | Wind** | Luminosity | Snow |
|---|---|---|---|---|---|---|---|
| 1778100461 | 22.78° C | 73% | 1009.5 hPa | 0 mm | - | 231 W/m² | - |
| 1778099553 | 22.22° C | 73% | 1009.8 hPa | 0 mm | - | 241 W/m² | - |
| 1778097734 | 22.22° C | 73% | 1009.9 hPa | 0 mm | - | 314 W/m² | - |
| 1778095308 | 22.22° C | 74% | 1010.1 hPa | 0 mm | - | 498 W/m² | - |
| 1778095005 | 21.67° C | 75% | 1010.1 hPa | 0 mm | - | 594 W/m² | - |
| 1778094399 | 21.67° C | 75% | 1010.3 hPa | 0 mm | - | 592 W/m² | - |
| 1778092883 | 20.56° C | 76% | 1010.7 hPa | 0 mm | - | 275 W/m² | - |
| 1778092580 | 20.56° C | 76% | 1010.5 hPa | 0 mm | - | 255 W/m² | - |
| 1778091974 | 20.56° C | 77% | 1010.4 hPa | 0 mm | - | 222 W/m² | - |
| 1778091065 | 20.56° C | 75% | 1010.8 hPa | 0 mm | - | 200 W/m² | - |
| 1778090762 | 20.56° C | 75% | 1010.3 hPa | 0 mm | - | 186 W/m² | - |
| 1778089851 | 20.56° C | 76% | 1010.8 hPa | 0 mm | - | 235 W/m² | - |
| 1778088640 | 20° C | 77% | 1010.8 hPa | 0 mm | - | 216 W/m² | - |
| 1778086824 | 19.44° C | 79% | 1011 hPa | 0 mm | - | 172 W/m² | - |
| 1778084695 | 20° C | 79% | 1011.6 hPa | 0 mm | - | 263 W/m² | - |
| 1778084392 | 20° C | 79% | 1011.4 hPa | 0 mm | - | 311 W/m² | - |
| 1778084089 | 20° C | 79% | 1011.4 hPa | 0 mm | - | 433 W/m² | - |
| 1778083181 | 18.89° C | 81% | 1011.8 hPa | 0 mm | - | 401 W/m² | - |
| 1778082879 | 18.89° C | 81% | 1011.3 hPa | 0 mm | - | 377 W/m² | - |
| 1778080555 | 17.78° C | 87% | 1011.5 hPa | 0 mm | - | 357 W/m² | - |
| 1778079040 | 16.67° C | 92% | 1011.3 hPa | 0 mm | - | 236 W/m² | - |
| 1778078434 | 16.11° C | 93% | 1011.5 hPa | 0 mm | - | 212 W/m² | - |
| 1778077830 | 16.11° C | 94% | 1011.7 hPa | 0 mm | - | 293 W/m² | - |
| 1778076923 | 15.56° C | 94% | 1012.1 hPa | 0 mm | - | 122 W/m² | - |
| 1778076318 | 15.56° C | 95% | 1012 hPa | 0 mm | - | 144 W/m² | - |
* Rain latest hour (hover to see other rain measurements)
** Current wind speed in m/s (hover to see current wind gust speed)